createdAt,value
2017-09-23T04:18:37.509Z,14.47
2017-09-23T04:19:02.975Z,14.51
2017-09-23T04:19:28.417Z,14.47
2017-09-23T04:19:53.807Z,14.51
2017-09-23T04:20:19.233Z,14.48
2017-09-23T04:20:44.661Z,14.53
2017-09-23T04:21:10.045Z,14.5
2017-09-23T04:21:35.494Z,14.5
2017-09-23T04:22:00.917Z,14.47
2017-09-23T04:22:26.391Z,14.48
2017-09-23T04:22:51.807Z,14.58
2017-09-23T04:23:17.225Z,14.55
2017-09-23T04:23:42.633Z,14.59
2017-09-23T04:24:08.043Z,14.48
2017-09-23T04:24:33.459Z,14.55
2017-09-23T04:24:58.869Z,14.58
2017-09-23T04:25:24.277Z,14.48
2017-09-23T04:25:49.682Z,14.55
2017-09-23T04:26:15.103Z,14.59
2017-09-23T04:26:40.544Z,14.54
2017-09-23T04:27:05.952Z,14.5
2017-09-23T04:27:31.381Z,14.63
2017-09-23T04:27:56.808Z,14.59
2017-09-23T04:28:22.204Z,14.6
2017-09-23T04:28:47.612Z,14.6
2017-09-23T04:29:13.059Z,14.53
2017-09-23T04:29:38.474Z,14.5
2017-09-23T04:30:03.895Z,14.6
2017-09-23T04:30:29.317Z,14.54
2017-09-23T04:30:54.733Z,14.53
2017-09-23T04:31:20.176Z,14.47
2017-09-23T04:31:45.675Z,14.62
2017-09-23T04:32:11.022Z,14.5
2017-09-23T04:32:36.415Z,14.63
2017-09-23T04:33:01.801Z,14.6
2017-09-23T04:33:27.222Z,14.63
2017-09-23T04:33:52.658Z,14.5
2017-09-23T04:34:18.067Z,14.62
2017-09-23T04:34:43.455Z,14.5
2017-09-23T04:35:08.883Z,14.48
2017-09-23T04:35:34.313Z,14.5
2017-09-23T04:35:59.743Z,14.5
2017-09-23T04:36:25.174Z,14.5
2017-09-23T04:36:50.605Z,14.55
2017-09-23T04:37:16.027Z,14.47
2017-09-23T04:37:41.439Z,14.53
2017-09-23T04:38:06.910Z,14.51
2017-09-23T04:38:32.297Z,14.48
2017-09-23T04:38:57.727Z,14.47
2017-09-23T04:39:23.138Z,14.51
2017-09-23T04:39:48.565Z,14.5
2017-09-23T04:40:13.980Z,14.51
2017-09-23T04:40:39.415Z,14.5
2017-09-23T04:41:04.850Z,14.48
2017-09-23T04:41:30.273Z,14.5
2017-09-23T04:41:55.713Z,14.47
2017-09-23T04:42:21.116Z,14.53
2017-09-23T04:42:46.531Z,14.5
2017-09-23T04:43:11.956Z,14.45
2017-09-23T04:43:37.372Z,14.59
2017-09-23T04:44:02.792Z,14.48
2017-09-23T04:44:28.223Z,14.48
2017-09-23T04:44:53.673Z,14.58
2017-09-23T04:45:19.077Z,14.51
2017-09-23T04:45:44.514Z,14.55
2017-09-23T04:46:09.967Z,14.47
2017-09-23T04:46:35.385Z,14.5
2017-09-23T04:47:00.806Z,14.48
2017-09-23T04:47:26.244Z,14.5
2017-09-23T04:47:51.664Z,14.47
2017-09-23T04:48:17.092Z,14.48
2017-09-23T04:48:42.517Z,14.47
2017-09-23T04:49:07.935Z,14.45
2017-09-23T04:49:33.340Z,14.45
2017-09-23T04:49:58.805Z,14.55
2017-09-23T04:50:24.218Z,14.5
2017-09-23T04:50:49.656Z,14.5
2017-09-23T04:51:15.073Z,14.5
2017-09-23T04:51:40.541Z,14.54
2017-09-23T04:52:05.962Z,14.53
2017-09-23T04:52:31.374Z,14.53
2017-09-23T04:52:56.807Z,14.48
2017-09-23T04:53:22.255Z,14.5
2017-09-23T04:53:47.674Z,14.51
2017-09-23T04:54:13.068Z,14.5
2017-09-23T04:54:38.464Z,14.44
2017-09-23T04:55:03.889Z,14.45
2017-09-23T04:55:29.363Z,14.5
2017-09-23T04:55:54.784Z,14.45
2017-09-23T04:56:20.202Z,14.53
2017-09-23T04:56:45.624Z,14.47
2017-09-23T04:57:11.055Z,14.51
2017-09-23T04:57:36.478Z,14.45
2017-09-23T04:58:01.894Z,14.48
2017-09-23T04:58:27.336Z,14.48
2017-09-23T04:58:52.745Z,14.51
2017-09-23T04:59:18.163Z,14.48
2017-09-23T04:59:43.566Z,14.51
2017-09-23T05:00:08.982Z,14.5
2017-09-23T05:00:34.417Z,14.45
2017-09-23T05:00:59.826Z,14.48
2017-09-23T05:01:25.259Z,14.51
2017-09-23T05:01:50.685Z,14.48
2017-09-23T05:02:16.116Z,14.48
2017-09-23T05:02:41.535Z,14.48
2017-09-23T05:03:06.970Z,14.48
2017-09-23T05:03:32.426Z,14.47
2017-09-23T05:03:57.817Z,14.51
2017-09-23T05:04:23.229Z,14.51
2017-09-23T05:04:48.659Z,14.48
2017-09-23T05:05:14.080Z,14.48
2017-09-23T05:05:39.510Z,14.47
2017-09-23T05:06:04.925Z,14.47
2017-09-23T05:06:30.342Z,14.44
2017-09-23T05:06:55.751Z,14.48
2017-09-23T05:07:21.179Z,14.53
2017-09-23T05:07:46.616Z,14.47
2017-09-23T05:08:12.012Z,14.45
2017-09-23T05:08:37.409Z,14.48
2017-09-23T05:09:02.857Z,14.51
2017-09-23T05:09:28.281Z,14.47
2017-09-23T05:09:53.714Z,14.48
2017-09-23T05:10:19.120Z,14.44
2017-09-23T05:10:44.553Z,14.48
2017-09-23T05:11:10.006Z,14.47
2017-09-23T05:11:35.419Z,14.48
2017-09-23T05:12:00.837Z,14.47
2017-09-23T05:12:26.269Z,14.48
2017-09-23T05:12:51.678Z,14.51
2017-09-23T05:13:17.087Z,14.5
2017-09-23T05:13:42.526Z,14.47
2017-09-23T05:14:07.933Z,14.53
2017-09-23T05:14:33.403Z,14.54
2017-09-23T05:14:58.783Z,14.5
2017-09-23T05:15:24.217Z,14.5
2017-09-23T05:15:49.634Z,14.53
2017-09-23T05:16:15.058Z,14.51
2017-09-23T05:16:40.500Z,14.51
2017-09-23T05:17:05.921Z,14.5
2017-09-23T05:17:31.344Z,14.54
2017-09-23T05:17:56.759Z,14.5
2017-09-23T05:18:22.175Z,14.51
2017-09-23T05:18:47.581Z,14.47
2017-09-23T05:19:13.007Z,14.48
2017-09-23T05:19:38.439Z,14.5
2017-09-23T05:20:03.875Z,14.47
2017-09-23T05:20:29.278Z,14.5
2017-09-23T05:20:54.705Z,14.47
2017-09-23T05:21:20.160Z,14.45
2017-09-23T05:21:45.569Z,14.45
2017-09-23T05:22:11.005Z,14.48
2017-09-23T05:22:36.434Z,14.51
2017-09-23T05:23:01.865Z,14.48
2017-09-23T05:23:27.316Z,14.44
2017-09-23T05:23:52.710Z,14.51
2017-09-23T05:24:18.132Z,14.5
2017-09-23T05:24:43.551Z,14.48
2017-09-23T05:25:08.993Z,14.48
2017-09-23T05:25:34.414Z,14.47
2017-09-23T05:25:59.851Z,14.5
2017-09-23T05:26:25.268Z,14.5
2017-09-23T05:26:50.694Z,14.5
2017-09-23T05:27:16.134Z,14.48
2017-09-23T05:27:41.548Z,14.5
2017-09-23T05:28:06.978Z,14.47
2017-09-23T05:28:32.431Z,14.45
2017-09-23T05:28:57.859Z,14.47
2017-09-23T05:29:23.297Z,14.43
2017-09-23T05:29:48.735Z,14.48
2017-09-23T05:30:14.163Z,14.44
2017-09-23T05:30:39.606Z,14.4
2017-09-23T05:31:05.041Z,14.47
2017-09-23T05:31:30.479Z,14.45
2017-09-23T05:31:55.908Z,14.45
2017-09-23T05:32:21.348Z,14.5
2017-09-23T05:32:46.778Z,14.48
2017-09-23T05:33:12.211Z,14.45
2017-09-23T05:33:37.639Z,14.47
2017-09-23T05:34:03.074Z,14.43
2017-09-23T05:34:28.486Z,14.4
2017-09-23T05:34:53.945Z,14.45
2017-09-23T05:35:19.370Z,14.47
2017-09-23T05:35:44.796Z,14.44
2017-09-23T05:36:10.228Z,14.5
2017-09-23T05:36:35.686Z,14.47
2017-09-23T05:37:01.109Z,14.45
2017-09-23T05:37:26.560Z,14.43
2017-09-23T05:37:51.948Z,14.48
2017-09-23T05:38:17.378Z,14.45
2017-09-23T05:38:42.816Z,14.45
2017-09-23T05:39:08.230Z,14.44
2017-09-23T05:39:33.652Z,14.51
2017-09-23T05:39:59.092Z,14.45
2017-09-23T05:40:24.533Z,14.44
2017-09-23T05:40:49.985Z,14.5
2017-09-23T05:41:15.419Z,14.44
2017-09-23T05:41:40.876Z,14.43
2017-09-23T05:42:06.281Z,14.5
2017-09-23T05:42:31.725Z,14.41
2017-09-23T05:42:57.154Z,14.47
2017-09-23T05:43:22.551Z,14.41
2017-09-23T05:43:47.994Z,14.44
2017-09-23T05:44:13.386Z,14.45
2017-09-23T05:44:38.809Z,14.41
2017-09-23T05:45:04.235Z,14.41
2017-09-23T05:45:29.660Z,14.51
2017-09-23T05:45:55.102Z,14.47
2017-09-23T05:46:20.529Z,14.43
2017-09-23T05:46:45.966Z,14.47
2017-09-23T05:47:11.379Z,14.43
2017-09-23T05:47:36.792Z,14.45
2017-09-23T05:48:02.220Z,14.48
2017-09-23T05:48:27.636Z,14.44
2017-09-23T05:48:53.136Z,14.44
2017-09-23T05:49:18.556Z,14.5
2017-09-23T05:49:43.979Z,14.45
2017-09-23T05:50:09.428Z,14.43
2017-09-23T05:50:34.840Z,14.45
2017-09-23T05:51:00.281Z,14.47
2017-09-23T05:51:25.708Z,14.47
2017-09-23T05:51:51.148Z,14.47
2017-09-23T05:52:16.547Z,14.47
2017-09-23T05:52:41.988Z,14.45
2017-09-23T05:53:07.405Z,14.48
2017-09-23T05:53:32.852Z,14.5
2017-09-23T05:53:58.283Z,14.44
2017-09-23T05:54:23.717Z,14.47
2017-09-23T05:54:49.111Z,14.43
2017-09-23T05:55:14.537Z,14.51
2017-09-23T05:55:39.984Z,14.45
2017-09-23T05:56:05.364Z,14.47
2017-09-23T05:56:30.799Z,14.41
2017-09-23T05:56:56.252Z,14.44
2017-09-23T05:57:21.637Z,14.45
2017-09-23T05:57:47.081Z,14.5
2017-09-23T05:58:12.471Z,14.48
2017-09-23T05:58:37.918Z,14.44
2017-09-23T05:59:03.401Z,14.44
2017-09-23T05:59:28.828Z,14.5
2017-09-23T05:59:54.273Z,14.47
2017-09-23T06:00:47.618Z,14.41
2017-09-23T06:01:13.076Z,14.36
2017-09-23T06:01:38.488Z,14.5
2017-09-23T06:02:03.922Z,14.5
2017-09-23T06:02:29.364Z,14.45
2017-09-23T06:02:54.763Z,14.35
2017-09-23T06:03:20.170Z,14.33
2017-09-23T06:03:45.588Z,14.4
2017-09-23T06:04:10.987Z,14.33
2017-09-23T06:04:36.412Z,14.33
2017-09-23T06:05:01.845Z,14.33
2017-09-23T06:05:27.234Z,14.4
2017-09-23T06:05:52.647Z,14.32
2017-09-23T06:06:18.069Z,14.4
2017-09-23T06:06:43.490Z,14.36
2017-09-23T06:07:08.901Z,14.41
2017-09-23T06:07:34.326Z,14.41
2017-09-23T06:07:59.787Z,14.35
2017-09-23T06:08:25.198Z,14.4
2017-09-23T06:08:50.625Z,14.32
2017-09-23T06:09:16.071Z,14.32
2017-09-23T06:09:41.500Z,14.4
2017-09-23T06:10:06.912Z,14.4
2017-09-23T06:10:32.320Z,14.37
2017-09-23T06:10:57.744Z,14.32
2017-09-23T06:11:23.180Z,14.36
2017-09-23T06:11:48.601Z,14.36
2017-09-23T06:12:14.018Z,14.37
2017-09-23T06:12:39.439Z,14.35
2017-09-23T06:13:04.863Z,14.43
2017-09-23T06:13:30.282Z,14.35
2017-09-23T06:13:55.724Z,14.4
2017-09-23T06:14:21.166Z,14.41
2017-09-23T06:14:46.569Z,14.41
2017-09-23T06:15:11.987Z,14.36
2017-09-23T06:15:37.407Z,14.33
2017-09-23T06:16:02.807Z,14.32
2017-09-23T06:16:28.218Z,14.4
2017-09-23T06:16:53.650Z,14.43
2017-09-23T06:17:19.082Z,14.36
2017-09-23T06:17:44.528Z,14.35
2017-09-23T06:18:09.971Z,14.4
2017-09-23T06:18:35.384Z,14.37
2017-09-23T06:19:00.827Z,14.4
2017-09-23T06:19:26.266Z,14.33
2017-09-23T06:19:51.664Z,14.35
2017-09-23T06:20:17.099Z,14.41
2017-09-23T06:20:42.511Z,14.43
2017-09-23T06:21:07.941Z,14.32
2017-09-23T06:21:33.337Z,14.37
2017-09-23T06:21:58.763Z,14.33
2017-09-23T06:22:24.193Z,14.47
2017-09-23T06:22:49.624Z,14.35
2017-09-23T06:23:15.068Z,14.43
2017-09-23T06:23:40.479Z,14.45
2017-09-23T06:24:05.934Z,14.45
2017-09-23T06:24:31.391Z,14.48
2017-09-23T06:24:56.781Z,14.44
2017-09-23T06:25:22.239Z,14.41
2017-09-23T06:25:47.666Z,14.5
2017-09-23T06:26:13.053Z,14.43
2017-09-23T06:26:38.500Z,14.45
2017-09-23T06:27:03.893Z,14.43
2017-09-23T06:27:29.319Z,14.47
2017-09-23T06:27:54.759Z,14.41
2017-09-23T06:28:20.156Z,14.5
2017-09-23T06:28:45.582Z,14.48
2017-09-23T06:29:10.985Z,14.47
2017-09-23T06:29:36.395Z,14.5
2017-09-23T06:30:01.820Z,14.47
2017-09-23T06:30:27.276Z,14.5
2017-09-23T06:30:52.686Z,14.53
2017-09-23T06:31:18.125Z,14.62
2017-09-23T06:31:43.505Z,14.47
2017-09-23T06:32:08.928Z,14.55
2017-09-23T06:32:34.413Z,14.62
2017-09-23T06:32:59.808Z,14.59
2017-09-23T06:33:25.210Z,14.63
2017-09-23T06:33:50.626Z,14.59
2017-09-23T06:34:16.055Z,14.59
2017-09-23T06:34:41.460Z,14.6
2017-09-23T06:35:06.880Z,14.6
2017-09-23T06:35:32.324Z,14.59
2017-09-23T06:35:57.725Z,14.59
2017-09-23T06:36:23.137Z,14.7
2017-09-23T06:36:48.538Z,14.62
2017-09-23T06:37:14.047Z,14.6
2017-09-23T06:37:39.422Z,14.58
2017-09-23T06:38:04.855Z,14.65
2017-09-23T06:38:30.261Z,14.59
2017-09-23T06:38:55.629Z,14.63
2017-09-23T06:39:21.032Z,14.62
2017-09-23T06:39:46.477Z,14.6
2017-09-23T06:40:11.837Z,14.63
2017-09-23T06:40:37.252Z,14.68
2017-09-23T06:41:02.671Z,14.65
2017-09-23T06:41:28.079Z,14.63
2017-09-23T06:41:53.518Z,14.7
2017-09-23T06:42:18.914Z,14.65
2017-09-23T06:42:44.332Z,14.69
2017-09-23T06:43:09.760Z,14.6
2017-09-23T06:43:35.225Z,14.59
2017-09-23T06:44:00.632Z,14.77
2017-09-23T06:44:26.080Z,14.68
2017-09-23T06:44:51.486Z,14.7
2017-09-23T06:45:16.900Z,14.72
2017-09-23T06:45:42.305Z,14.68
2017-09-23T06:46:07.735Z,14.77
2017-09-23T06:46:33.144Z,14.78
2017-09-23T06:46:58.594Z,14.77
2017-09-23T06:47:24.016Z,14.72
2017-09-23T06:47:49.432Z,14.77
2017-09-23T06:48:14.872Z,14.73
2017-09-23T06:49:23.500Z,14.79
2017-09-23T06:49:48.943Z,14.69
2017-09-23T06:50:14.408Z,14.7
2017-09-23T06:50:39.850Z,14.73
2017-09-23T06:51:05.255Z,14.78
2017-09-23T06:51:30.668Z,14.66
2017-09-23T06:51:56.109Z,14.65
2017-09-23T06:52:21.537Z,14.72
2017-09-23T06:52:46.981Z,14.72
2017-09-23T06:53:12.412Z,14.81
2017-09-23T06:53:37.798Z,14.77
2017-09-23T06:54:03.205Z,14.79
2017-09-23T06:54:28.634Z,14.73
2017-09-23T06:54:54.064Z,14.72
2017-09-23T06:55:47.445Z,14.79
2017-09-23T06:56:12.877Z,14.73
2017-09-23T06:56:38.321Z,14.65
2017-09-23T06:57:03.774Z,14.68
2017-09-23T06:57:29.157Z,14.69
2017-09-23T06:57:54.593Z,14.69
2017-09-23T06:58:20.010Z,14.69
2017-09-23T06:58:45.470Z,14.7
2017-09-23T06:59:10.857Z,14.79
2017-09-23T06:59:36.289Z,14.77
2017-09-23T07:00:01.726Z,14.73
2017-09-23T07:00:27.155Z,14.72
2017-09-23T07:00:52.584Z,14.77
2017-09-23T07:01:18.000Z,14.77
2017-09-23T07:01:43.407Z,14.72
2017-09-23T07:02:08.813Z,14.7
2017-09-23T07:02:34.292Z,14.78
2017-09-23T07:02:59.674Z,14.73
2017-09-23T07:03:25.094Z,14.65
2017-09-23T07:03:50.554Z,14.72
2017-09-23T07:04:15.970Z,14.66
2017-09-23T07:04:41.359Z,14.69
2017-09-23T07:05:06.780Z,14.66
2017-09-23T07:05:32.225Z,14.65
2017-09-23T07:05:57.636Z,14.68
2017-09-23T07:06:23.069Z,14.63
2017-09-23T07:06:48.493Z,14.62
2017-09-23T07:07:13.910Z,14.62
2017-09-23T07:07:39.306Z,14.62
2017-09-23T07:08:04.693Z,14.58
2017-09-23T07:08:30.156Z,14.59
2017-09-23T07:08:55.610Z,14.5
2017-09-23T07:09:21.021Z,14.47
2017-09-23T07:09:46.426Z,14.51
2017-09-23T07:10:11.832Z,14.5
2017-09-23T07:10:37.255Z,14.5
2017-09-23T07:11:02.710Z,14.45
2017-09-23T07:11:28.133Z,14.5
2017-09-23T07:11:53.553Z,14.45
2017-09-23T07:12:18.949Z,14.45
2017-09-23T07:12:44.395Z,14.43
2017-09-23T07:13:09.797Z,14.5
2017-09-23T07:13:35.227Z,14.45
2017-09-23T07:14:00.709Z,14.47
2017-09-23T07:14:26.050Z,14.48
2017-09-23T07:14:51.476Z,14.35
2017-09-23T07:15:16.874Z,14.47
2017-09-23T07:15:42.291Z,14.43
2017-09-23T07:16:07.775Z,14.4
2017-09-23T07:16:33.199Z,14.33
2017-09-23T07:16:58.624Z,14.35
2017-09-23T07:17:24.036Z,14.41
2017-09-23T07:17:49.412Z,14.4
2017-09-23T07:18:14.842Z,14.36
2017-09-23T07:18:40.269Z,14.32
2017-09-23T07:19:05.666Z,14.35
2017-09-23T07:19:31.105Z,14.25
2017-09-23T07:19:56.495Z,14.32
2017-09-23T07:20:21.909Z,14.23
2017-09-23T07:20:47.341Z,14.3
2017-09-23T07:21:12.769Z,14.26
2017-09-23T07:21:38.187Z,14.26
2017-09-23T07:22:03.638Z,14.32
2017-09-23T07:22:29.045Z,14.3
2017-09-23T07:22:54.495Z,14.26
2017-09-23T07:23:19.924Z,14.26
2017-09-23T07:23:45.346Z,14.28
2017-09-23T07:24:10.797Z,14.22
2017-09-23T07:24:36.205Z,14.22
2017-09-23T07:25:01.665Z,14.2
2017-09-23T07:25:27.120Z,14.28
2017-09-23T07:25:52.480Z,14.29
2017-09-23T07:26:17.879Z,14.3
2017-09-23T07:26:43.336Z,14.29
2017-09-23T07:27:08.783Z,14.25
2017-09-23T07:27:34.215Z,14.32
2017-09-23T07:27:59.655Z,14.28
2017-09-23T07:28:25.065Z,14.3
2017-09-23T07:28:50.527Z,14.23
2017-09-23T07:29:15.912Z,14.25
2017-09-23T07:29:41.370Z,14.28
2017-09-23T07:30:06.764Z,14.3
2017-09-23T07:30:32.201Z,14.3
2017-09-23T07:30:57.635Z,14.26
2017-09-23T07:31:23.046Z,14.36
2017-09-23T07:31:48.443Z,14.35
2017-09-23T07:32:13.845Z,14.33
2017-09-23T07:32:39.278Z,14.36
2017-09-23T07:33:04.769Z,14.35
2017-09-23T07:33:30.158Z,14.4
2017-09-23T07:33:55.523Z,14.32
2017-09-23T07:34:20.935Z,14.37
2017-09-23T07:34:46.319Z,14.35
2017-09-23T07:35:11.761Z,14.37
2017-09-23T07:35:37.165Z,14.33
2017-09-23T07:36:02.632Z,14.32
2017-09-23T07:36:28.026Z,14.37
2017-09-23T07:36:53.465Z,14.47
2017-09-23T07:37:18.862Z,14.37
2017-09-23T07:37:44.280Z,14.47
2017-09-23T07:38:09.815Z,14.45
2017-09-23T07:38:35.220Z,14.45
2017-09-23T07:39:00.638Z,14.44
2017-09-23T07:39:26.018Z,14.44
2017-09-23T07:39:51.449Z,14.45
2017-09-23T07:40:16.865Z,14.54
2017-09-23T07:40:42.282Z,14.5
2017-09-23T07:41:07.685Z,14.48
2017-09-23T07:41:33.140Z,14.5
2017-09-23T07:41:58.524Z,14.54
2017-09-23T07:42:23.937Z,14.59
2017-09-23T07:42:49.375Z,14.58
2017-09-23T07:43:14.818Z,14.63
2017-09-23T07:43:40.279Z,14.55
2017-09-23T07:44:05.919Z,14.6
2017-09-23T07:44:31.327Z,14.55
2017-09-23T07:44:56.754Z,14.66
2017-09-23T07:45:22.198Z,14.62
2017-09-23T07:45:47.596Z,14.58
2017-09-23T07:46:13.008Z,14.63
2017-09-23T07:46:38.722Z,14.63
2017-09-23T07:47:04.561Z,14.66
2017-09-23T07:47:30.192Z,14.55
2017-09-23T07:47:56.189Z,14.69
2017-09-23T07:48:21.020Z,14.63
2017-09-23T07:48:46.538Z,14.55
2017-09-23T07:49:11.985Z,14.69
2017-09-23T07:49:37.388Z,14.6
2017-09-23T07:50:02.779Z,14.77
2017-09-23T07:50:28.226Z,14.7
2017-09-23T07:50:53.617Z,14.72
2017-09-23T07:51:19.053Z,14.78
2017-09-23T07:51:44.422Z,14.77
2017-09-23T07:52:09.862Z,14.69
2017-09-23T07:52:35.274Z,14.84
2017-09-23T07:53:00.693Z,14.79
2017-09-23T07:53:26.121Z,14.85
2017-09-23T07:53:51.575Z,14.85
2017-09-23T07:54:16.998Z,14.88
2017-09-23T07:54:42.428Z,14.84
2017-09-23T07:55:07.864Z,14.89
2017-09-23T07:55:33.274Z,14.82
2017-09-23T07:55:58.711Z,14.84
2017-09-23T07:56:24.142Z,14.85
2017-09-23T07:56:49.572Z,14.85
2017-09-23T07:57:14.964Z,14.85
2017-09-23T07:57:40.386Z,14.86
2017-09-23T07:58:05.824Z,14.85
2017-09-23T07:58:31.225Z,14.77
2017-09-23T07:58:56.655Z,14.89
2017-09-23T07:59:22.152Z,14.81
2017-09-23T07:59:47.484Z,14.81
2017-09-23T08:00:12.892Z,14.84
2017-09-23T08:00:38.334Z,14.88
2017-09-23T08:01:03.757Z,14.85
2017-09-23T08:01:29.203Z,14.82
2017-09-23T08:01:54.616Z,14.82
2017-09-23T08:02:20.046Z,14.82
2017-09-23T08:02:45.507Z,14.84
2017-09-23T08:03:10.912Z,14.85
2017-09-23T08:03:37.730Z,14.84
2017-09-23T08:04:03.001Z,14.82
2017-09-23T08:04:31.172Z,14.89
2017-09-23T08:04:56.617Z,14.82
2017-09-23T08:05:22.249Z,14.78
2017-09-23T08:05:47.612Z,14.82
2017-09-23T08:06:13.041Z,14.84
2017-09-23T08:06:38.400Z,14.82
2017-09-23T08:07:03.884Z,14.82
2017-09-23T08:07:29.289Z,14.86
2017-09-23T08:07:54.735Z,14.89
2017-09-23T08:08:20.143Z,14.86
2017-09-23T08:08:45.526Z,14.85
2017-09-23T08:09:10.955Z,14.81
2017-09-23T08:09:36.410Z,14.89
2017-09-23T08:10:01.794Z,14.85
2017-09-23T08:10:27.243Z,14.81
2017-09-23T08:10:52.676Z,14.85
2017-09-23T08:11:18.125Z,14.79
2017-09-23T08:11:43.537Z,14.86
2017-09-23T08:12:08.959Z,14.86
2017-09-23T08:12:34.405Z,14.79
2017-09-23T08:12:59.897Z,14.89
2017-09-23T08:13:25.274Z,14.88
2017-09-23T08:13:50.719Z,14.86
2017-09-23T08:14:16.116Z,14.84
2017-09-23T08:14:41.555Z,14.86
2017-09-23T08:15:06.984Z,14.89
2017-09-23T08:15:32.381Z,14.99
2017-09-23T08:15:57.787Z,14.97
2017-09-23T08:16:23.209Z,15
2017-09-23T08:16:48.634Z,14.96
2017-09-23T08:17:14.065Z,14.92
2017-09-23T08:17:39.492Z,15.02
2017-09-23T08:18:04.875Z,15
2017-09-23T08:18:30.309Z,14.96
2017-09-23T08:18:55.756Z,14.92
2017-09-23T08:19:21.206Z,15.03
2017-09-23T08:19:46.663Z,15
2017-09-23T08:20:12.020Z,15
2017-09-23T08:20:37.416Z,15.09
2017-09-23T08:21:02.877Z,15.07
2017-09-23T08:21:28.327Z,15.04
2017-09-23T08:21:53.717Z,15.07
2017-09-23T08:22:19.133Z,15.17
2017-09-23T08:22:44.699Z,15.17
2017-09-23T08:23:10.043Z,15.21
2017-09-23T08:23:35.598Z,15.28
2017-09-23T08:24:00.998Z,15.35
2017-09-23T08:24:26.423Z,15.37
2017-09-23T08:24:51.850Z,15.4
2017-09-23T08:26:00.460Z,15.54
2017-09-23T08:26:25.889Z,15.49
2017-09-23T08:26:51.331Z,15.51
2017-09-23T08:27:16.746Z,15.61
2017-09-23T08:27:42.181Z,15.7
2017-09-23T08:28:07.615Z,15.61
2017-09-23T08:28:33.078Z,15.7
2017-09-23T08:28:58.472Z,15.7
2017-09-23T08:29:24.026Z,15.73
2017-09-23T08:29:49.409Z,15.86
2017-09-23T08:30:14.772Z,15.8
2017-09-23T08:30:40.276Z,16
2017-09-23T08:31:05.690Z,15.95
2017-09-23T08:31:31.119Z,16.05
2017-09-23T08:31:56.512Z,16.04
2017-09-23T08:32:21.930Z,16.05
2017-09-23T08:32:47.346Z,16.04
2017-09-23T08:33:12.816Z,16.15
2017-09-23T08:33:38.212Z,16.17
2017-09-23T08:34:03.647Z,16.17
2017-09-23T08:34:29.066Z,16.26
2017-09-23T08:34:54.476Z,16.26
2017-09-23T08:35:19.882Z,16.21
2017-09-23T08:35:45.277Z,16.29
2017-09-23T08:36:10.709Z,16.24
2017-09-23T08:36:36.156Z,16.32
2017-09-23T08:37:01.555Z,16.31
2017-09-23T08:37:26.989Z,16.42
2017-09-23T08:37:52.406Z,16.43
2017-09-23T08:38:17.941Z,16.33
2017-09-23T08:38:43.340Z,16.39
2017-09-23T08:39:08.748Z,16.36
2017-09-23T08:39:34.165Z,16.36
2017-09-23T08:39:59.574Z,16.35
2017-09-23T08:40:24.989Z,16.33
2017-09-23T08:40:50.435Z,16.36
2017-09-23T08:41:15.813Z,16.32
2017-09-23T08:41:41.271Z,16.29
2017-09-23T08:42:06.701Z,16.26
2017-09-23T08:42:32.106Z,16.29
2017-09-23T08:42:57.611Z,16.23
2017-09-23T08:43:23.073Z,16.21
2017-09-23T08:43:48.459Z,16.21
2017-09-23T08:44:13.917Z,16.26
2017-09-23T08:44:39.296Z,16.29
2017-09-23T08:45:04.683Z,16.2
2017-09-23T08:45:30.111Z,16.21
2017-09-23T08:45:55.514Z,16.13
2017-09-23T08:46:20.980Z,16.2
2017-09-23T08:46:46.402Z,16.15
2017-09-23T08:47:11.838Z,16.17
2017-09-23T08:47:37.196Z,16.16
2017-09-23T08:48:02.663Z,16.16
2017-09-23T08:48:28.049Z,16.15
2017-09-23T08:48:53.457Z,16
2017-09-23T08:49:18.888Z,16.04
2017-09-23T08:49:44.356Z,15.98
2017-09-23T08:50:09.721Z,16.16
2017-09-23T08:50:35.110Z,16.02
2017-09-23T08:51:00.533Z,16.1
2017-09-23T08:51:25.954Z,16.16
2017-09-23T08:51:51.346Z,16.23
2017-09-23T08:52:16.786Z,16.16
2017-09-23T08:52:42.221Z,16.23
2017-09-23T08:53:07.616Z,16.31
2017-09-23T08:53:33.033Z,16.26
2017-09-23T08:53:58.471Z,16.29
2017-09-23T08:54:23.853Z,16.28
2017-09-23T08:54:49.297Z,16.28
2017-09-23T08:55:14.687Z,16.2
2017-09-23T08:55:40.090Z,16.35
2017-09-23T08:56:05.528Z,16.21
2017-09-23T08:56:30.943Z,16.28
2017-09-23T08:56:56.357Z,16.29
2017-09-23T08:57:21.782Z,16.35
2017-09-23T08:57:47.180Z,16.39
2017-09-23T08:58:12.596Z,16.42
2017-09-23T08:58:37.998Z,16.42
2017-09-23T08:59:03.430Z,16.46
2017-09-23T08:59:28.838Z,16.49
2017-09-23T08:59:54.253Z,16.42
2017-09-23T09:00:19.673Z,16.42
2017-09-23T09:01:07.976Z,16.53
2017-09-23T09:01:33.432Z,16.54
2017-09-23T09:01:58.892Z,16.5
2017-09-23T09:02:24.282Z,16.49
2017-09-23T09:02:49.673Z,16.51
2017-09-23T09:03:15.196Z,16.5
2017-09-23T09:03:40.529Z,16.49
2017-09-23T09:04:05.939Z,16.5
2017-09-23T09:04:31.376Z,16.58
2017-09-23T09:04:56.776Z,16.58
2017-09-23T09:05:22.219Z,16.47
2017-09-23T09:05:47.621Z,16.57
2017-09-23T09:06:13.034Z,16.57
2017-09-23T09:06:38.428Z,16.56
2017-09-23T09:07:03.823Z,16.54
2017-09-23T09:07:29.256Z,16.57
2017-09-23T09:07:54.638Z,16.58
2017-09-23T09:08:20.055Z,16.56
2017-09-23T09:08:45.448Z,16.54
2017-09-23T09:09:38.798Z,16.5
2017-09-23T09:10:04.241Z,16.46
2017-09-23T09:10:29.640Z,16.53
2017-09-23T09:10:55.070Z,16.5
2017-09-23T09:11:20.457Z,16.46
2017-09-23T09:11:45.894Z,16.53
2017-09-23T09:12:11.289Z,16.51
2017-09-23T09:12:36.713Z,16.53
2017-09-23T09:13:02.252Z,16.49
2017-09-23T09:13:27.560Z,16.53
2017-09-23T09:13:53.039Z,16.5
2017-09-23T09:14:18.408Z,16.5
2017-09-23T09:14:43.822Z,16.51
2017-09-23T09:15:09.240Z,16.56
2017-09-23T09:15:34.743Z,16.54
2017-09-23T09:16:00.099Z,16.64
2017-09-23T09:16:25.464Z,16.68
2017-09-23T09:16:50.893Z,16.64
2017-09-23T09:17:16.328Z,16.75
2017-09-23T09:17:41.706Z,16.65
2017-09-23T09:18:07.171Z,16.68
2017-09-23T09:18:32.602Z,16.81
2017-09-23T09:18:58.005Z,16.71
2017-09-23T09:19:23.392Z,16.79
2017-09-23T09:19:48.811Z,16.79
2017-09-23T09:20:14.304Z,16.81
2017-09-23T09:20:39.688Z,16.76
2017-09-23T09:21:05.092Z,16.74
2017-09-23T09:21:30.566Z,16.76
2017-09-23T09:21:55.954Z,16.74
2017-09-23T09:22:21.393Z,16.78
2017-09-23T09:22:46.820Z,16.72
2017-09-23T09:23:12.283Z,16.81
2017-09-23T09:23:37.684Z,16.78
2017-09-23T09:24:03.104Z,16.64
2017-09-23T09:24:28.511Z,16.75
2017-09-23T09:24:53.956Z,16.68
2017-09-23T09:25:19.375Z,16.61
2017-09-23T09:25:44.893Z,16.74
2017-09-23T09:26:10.235Z,16.68
2017-09-23T09:26:35.714Z,16.79
2017-09-23T09:27:01.125Z,16.74
2017-09-23T09:27:26.529Z,16.66
2017-09-23T09:27:51.962Z,16.75
2017-09-23T09:28:17.428Z,16.72
2017-09-23T09:28:42.791Z,16.83
2017-09-23T09:29:08.237Z,16.83
2017-09-23T09:29:33.674Z,16.83
2017-09-23T09:29:59.104Z,16.89
2017-09-23T09:30:24.487Z,16.86
2017-09-23T09:30:49.937Z,16.89
2017-09-23T09:31:15.341Z,16.91
2017-09-23T09:31:40.762Z,16.91
2017-09-23T09:32:06.205Z,16.83
2017-09-23T09:32:31.590Z,16.93
2017-09-23T09:32:57.014Z,16.93
2017-09-23T09:33:22.474Z,16.9
2017-09-23T09:33:47.878Z,16.89
2017-09-23T09:34:13.288Z,16.97
2017-09-23T09:34:38.753Z,16.94
2017-09-23T09:35:04.208Z,16.96
2017-09-23T09:35:29.599Z,16.96
2017-09-23T09:35:55.094Z,17.01
2017-09-23T09:36:20.454Z,16.94
2017-09-23T09:36:45.818Z,16.97
2017-09-23T09:37:11.211Z,16.99
2017-09-23T09:37:36.664Z,17.05
2017-09-23T09:38:02.077Z,17.05
2017-09-23T09:38:27.502Z,17.04
2017-09-23T09:38:52.958Z,17.04
2017-09-23T09:39:18.340Z,17.06
2017-09-23T09:39:43.738Z,17.11
2017-09-23T09:40:09.174Z,17.09
2017-09-23T09:40:34.629Z,17.2
2017-09-23T09:40:59.995Z,17.12
2017-09-23T09:41:25.434Z,17.12
2017-09-23T09:41:50.836Z,17.22
2017-09-23T09:42:16.253Z,17.27
2017-09-23T09:42:41.640Z,17.2
2017-09-23T09:43:07.059Z,17.27
2017-09-23T09:43:32.523Z,17.22
2017-09-23T09:43:57.947Z,17.27
2017-09-23T09:44:23.346Z,17.23
2017-09-23T09:44:48.727Z,17.27
2017-09-23T09:45:14.158Z,17.23
2017-09-23T09:45:39.598Z,17.2
2017-09-23T09:46:05.007Z,17.24
2017-09-23T09:46:30.390Z,17.19
2017-09-23T09:46:55.801Z,17.22
2017-09-23T09:47:21.256Z,17.19
2017-09-23T09:47:46.649Z,17.22
2017-09-23T09:48:12.085Z,17.15
2017-09-23T09:48:37.450Z,17.12
2017-09-23T09:49:03.017Z,17.11
2017-09-23T09:49:28.337Z,17.14
2017-09-23T09:49:53.796Z,17.15
2017-09-23T09:50:19.182Z,17.12
2017-09-23T09:50:44.610Z,17.23
2017-09-23T09:51:10.026Z,17.24